createdAt,value
2019-05-13T00:01:07.436Z,8.10
2019-05-13T00:03:37.154Z,8.10
2019-05-13T00:06:06.841Z,8.10
2019-05-13T00:08:36.573Z,7.10
2019-05-13T00:11:06.626Z,6.70
2019-05-13T00:13:36.312Z,6.50
2019-05-13T00:16:06.179Z,6.70
2019-05-13T00:18:35.895Z,6.70
2019-05-13T00:21:05.692Z,6.70
2019-05-13T00:23:35.502Z,7.10
2019-05-13T00:26:05.559Z,7.20
2019-05-13T00:28:35.376Z,7.30
2019-05-13T00:31:05.199Z,7.70
2019-05-13T00:33:35.013Z,8.00
2019-05-13T00:36:04.804Z,7.90
2019-05-13T00:38:34.486Z,8.20
2019-05-13T00:41:04.218Z,8.20
2019-05-13T00:43:34.119Z,8.10
2019-05-13T00:46:04.156Z,8.10
2019-05-13T00:48:34.084Z,8.10
2019-05-13T00:51:04.106Z,8.20
2019-05-13T00:53:35.337Z,7.40
2019-05-13T00:56:05.330Z,8.10
2019-05-13T00:58:35.048Z,8.10
2019-05-13T01:01:04.776Z,8.10
2019-05-13T01:03:34.587Z,8.10
2019-05-13T01:06:04.468Z,8.10
2019-05-13T01:08:34.254Z,8.70
2019-05-13T01:11:04.447Z,9.10
2019-05-13T01:13:34.416Z,9.30
2019-05-13T01:16:04.208Z,9.70
2019-05-13T01:18:53.808Z,10.20
2019-05-13T01:21:24.046Z,10.60
2019-05-13T01:23:54.376Z,11.00
2019-05-13T01:26:24.274Z,11.60
2019-05-13T01:28:54.077Z,11.90
2019-05-13T01:31:43.583Z,12.00
2019-05-13T01:34:14.242Z,12.20
2019-05-13T01:36:44.788Z,12.50
2019-05-13T01:39:14.584Z,12.60
2019-05-13T01:41:44.347Z,12.70
2019-05-13T01:44:14.154Z,13.10
2019-05-13T01:46:43.959Z,13.00
2019-05-13T01:49:13.872Z,13.20
2019-05-13T01:51:44.104Z,13.60
2019-05-13T01:54:14.429Z,14.10
2019-05-13T01:56:44.318Z,14.30
2019-05-13T01:59:15.146Z,14.60
2019-05-13T02:01:45.167Z,15.00
2019-05-13T02:04:14.876Z,15.00
2019-05-13T02:06:44.613Z,15.50
2019-05-13T02:09:14.548Z,15.70
2019-05-13T02:11:46.592Z,16.30
2019-05-13T02:14:15.810Z,16.90
2019-05-13T02:16:45.533Z,16.80
2019-05-13T02:19:15.315Z,16.80
2019-05-13T02:21:45.121Z,16.70
2019-05-13T02:24:14.894Z,16.90
2019-05-13T02:26:44.893Z,17.50
2019-05-13T02:29:14.629Z,17.80
2019-05-13T02:31:51.091Z,17.90
2019-05-13T02:34:15.785Z,18.30
2019-05-13T02:36:45.539Z,18.50
2019-05-13T02:39:15.334Z,18.80
2019-05-13T02:41:45.204Z,19.20
2019-05-13T02:44:34.186Z,19.50
2019-05-13T02:47:04.238Z,19.70
2019-05-13T02:49:34.009Z,19.90
2019-05-13T02:52:03.742Z,20.30
2019-05-13T02:54:34.374Z,20.80
2019-05-13T02:57:04.539Z,21.40
2019-05-13T02:59:34.243Z,21.60
2019-05-13T03:02:04.595Z,22.10
2019-05-13T03:04:34.286Z,22.50
2019-05-13T03:07:04.110Z,22.80
2019-05-13T03:09:33.816Z,23.40
2019-05-13T03:12:04.387Z,23.70
2019-05-13T03:14:34.475Z,24.10
2019-05-13T03:17:13.200Z,24.60
2019-05-13T03:19:43.690Z,24.60
2019-05-13T03:22:13.747Z,25.10
2019-05-13T03:24:43.675Z,26.20
2019-05-13T03:27:13.431Z,26.00
2019-05-13T03:29:43.778Z,26.70
2019-05-13T03:32:16.088Z,26.80
2019-05-13T03:34:46.111Z,26.70
2019-05-13T03:37:16.807Z,26.80
2019-05-13T03:39:47.622Z,26.80
2019-05-13T03:42:17.375Z,27.00
2019-05-13T03:44:52.479Z,27.40
2019-05-13T03:47:25.190Z,27.90
2019-05-13T03:50:03.437Z,27.90
2019-05-13T03:52:33.678Z,28.10
2019-05-13T03:55:03.549Z,28.30
2019-05-13T03:57:34.135Z,28.30
2019-05-13T04:00:04.527Z,28.20
2019-05-13T04:02:35.080Z,27.90
2019-05-13T04:05:05.436Z,28.00
2019-05-13T04:07:35.454Z,27.50
2019-05-13T04:10:06.406Z,27.20
2019-05-13T04:12:36.342Z,26.50
2019-05-13T04:15:06.490Z,27.20
2019-05-13T04:17:36.357Z,27.40
2019-05-13T04:20:07.034Z,27.30
2019-05-13T04:22:36.929Z,27.30
2019-05-13T04:25:06.967Z,26.70
2019-05-13T04:27:36.946Z,26.20
2019-05-13T04:30:12.953Z,25.90
2019-05-13T04:32:44.163Z,25.60
2019-05-13T04:35:13.485Z,25.40
2019-05-13T04:37:43.701Z,25.10
2019-05-13T04:40:13.667Z,24.80
2019-05-13T04:42:43.523Z,24.40
2019-05-13T04:45:13.745Z,24.20
2019-05-13T04:47:43.665Z,23.50
2019-05-13T04:50:14.361Z,23.30
2019-05-13T04:52:44.391Z,23.20
2019-05-13T04:55:14.249Z,22.80
2019-05-13T04:57:44.863Z,22.20
2019-05-13T05:00:16.712Z,22.30
2019-05-13T05:03:13.793Z,21.70
2019-05-13T05:06:33.105Z,21.50
2019-05-13T05:09:42.880Z,21.50
2019-05-13T05:12:34.805Z,21.00
2019-05-13T05:16:08.214Z,20.90
2019-05-13T05:19:06.587Z,20.80
2019-05-13T05:21:52.742Z,20.10
2019-05-13T05:25:04.037Z,20.10
2019-05-13T05:28:33.220Z,19.90
2019-05-13T05:32:18.193Z,19.50
2019-05-13T05:36:16.935Z,19.40
2019-05-13T05:39:37.931Z,18.00
2019-05-13T05:42:12.866Z,17.20
2019-05-13T05:44:45.541Z,17.20
2019-05-13T05:47:16.989Z,17.30
2019-05-13T05:49:48.200Z,16.90
2019-05-13T05:52:21.247Z,17.00
2019-05-13T05:54:53.752Z,17.30
2019-05-13T05:57:27.448Z,17.40
2019-05-13T05:59:57.777Z,17.50
2019-05-13T06:02:32.188Z,16.60
2019-05-13T06:05:03.245Z,16.60
2019-05-13T06:07:36.128Z,16.50
2019-05-13T06:10:07.273Z,15.40
2019-05-13T06:12:38.569Z,15.40
2019-05-13T06:15:09.009Z,16.00
2019-05-13T06:17:41.062Z,15.50
2019-05-13T06:20:13.270Z,15.00
2019-05-13T06:22:42.709Z,15.20
2019-05-13T06:25:14.470Z,15.20
2019-05-13T06:27:44.398Z,15.40
2019-05-13T06:30:14.723Z,15.00
2019-05-13T06:32:44.875Z,14.60
2019-05-13T06:35:14.927Z,14.60
2019-05-13T06:37:44.844Z,14.40
2019-05-13T06:40:15.087Z,14.10
2019-05-13T06:42:44.876Z,14.60
2019-05-13T06:45:14.925Z,13.00
2019-05-13T06:47:44.698Z,12.80
2019-05-13T06:50:14.693Z,13.40
2019-05-13T06:52:44.460Z,13.10
2019-05-13T06:55:14.286Z,12.50
2019-05-13T06:57:44.090Z,11.50
2019-05-13T07:00:14.056Z,11.40
2019-05-13T07:02:43.747Z,11.20
2019-05-13T07:05:13.682Z,10.70
2019-05-13T07:07:43.415Z,10.80
2019-05-13T07:10:13.229Z,11.10
2019-05-13T07:12:42.945Z,10.20
2019-05-13T07:15:12.929Z,10.30
2019-05-13T07:17:42.672Z,9.50
2019-05-13T07:20:13.073Z,9.50
2019-05-13T07:22:42.858Z,9.60
2019-05-13T07:25:12.851Z,9.70
2019-05-13T07:27:42.664Z,9.80
2019-05-13T07:30:13.373Z,8.70
2019-05-13T07:32:43.148Z,7.30
2019-05-13T07:35:14.462Z,6.90
2019-05-13T07:37:44.977Z,7.30
2019-05-13T07:40:15.408Z,7.30
2019-05-13T07:42:45.141Z,7.30
2019-05-13T07:45:15.350Z,7.00
2019-05-13T07:47:45.128Z,6.40
2019-05-13T07:50:15.119Z,5.40
2019-05-13T07:52:44.831Z,5.20
2019-05-13T07:55:16.150Z,5.70
2019-05-13T07:57:45.872Z,4.10
2019-05-13T08:00:15.979Z,4.00
2019-05-13T08:02:45.842Z,2.10
2019-05-13T08:05:16.652Z,1.90
2019-05-13T08:07:46.430Z,2.70
2019-05-13T08:10:16.407Z,2.50
2019-05-13T08:12:46.264Z,2.30
2019-05-13T08:15:16.857Z,2.50
2019-05-13T08:17:47.645Z,1.30
2019-05-13T08:20:17.938Z,1.00
2019-05-13T08:22:47.671Z,1.00
2019-05-13T08:25:17.777Z,1.00
2019-05-13T08:27:47.477Z,1.00
2019-05-13T08:30:18.453Z,1.00
2019-05-13T08:32:48.600Z,1.00
2019-05-13T08:35:18.450Z,1.00
2019-05-13T08:37:48.205Z,1.00
2019-05-13T08:40:20.424Z,1.00
2019-05-13T08:42:51.982Z,1.00
2019-05-13T08:45:22.391Z,1.00
2019-05-13T08:47:52.405Z,1.00
2019-05-13T08:50:23.177Z,1.00
2019-05-13T08:52:56.293Z,1.00
2019-05-13T08:55:25.977Z,1.00
2019-05-13T08:57:55.807Z,1.00
2019-05-13T09:00:53.929Z,1.00
2019-05-13T09:03:24.806Z,1.00
2019-05-13T09:05:55.284Z,1.00
2019-05-13T09:08:26.395Z,1.00
2019-05-13T09:10:57.081Z,1.00
2019-05-13T09:13:27.236Z,1.00
2019-05-13T09:15:57.008Z,1.00
2019-05-13T09:18:26.715Z,1.00
2019-05-13T09:20:56.443Z,1.00
2019-05-13T09:23:26.217Z,1.00
2019-05-13T09:25:56.210Z,1.00
2019-05-13T09:28:25.985Z,1.00
2019-05-13T09:30:55.820Z,1.00
2019-05-13T09:33:25.625Z,1.00
2019-05-13T09:35:55.382Z,1.00
2019-05-13T09:38:25.156Z,1.00
2019-05-13T09:40:54.917Z,1.00
2019-05-13T09:43:24.625Z,1.00
2019-05-13T09:45:54.422Z,1.00
2019-05-13T09:48:24.160Z,1.00
2019-05-13T09:50:53.975Z,1.00
2019-05-13T09:53:23.856Z,1.00
2019-05-13T09:55:53.638Z,1.00
2019-05-13T09:58:23.407Z,1.00
2019-05-13T10:00:53.429Z,1.00
2019-05-13T10:03:29.188Z,1.00
2019-05-13T10:05:54.931Z,1.00
2019-05-13T10:08:25.088Z,1.00
2019-05-13T10:10:54.800Z,1.00
2019-05-13T10:13:24.504Z,1.00
2019-05-13T10:15:54.214Z,1.00
2019-05-13T10:18:24.214Z,1.00
2019-05-13T10:20:58.915Z,1.00
2019-05-13T10:23:32.518Z,1.00
2019-05-13T10:26:05.459Z,1.00
2019-05-13T10:28:36.009Z,1.00
2019-05-13T10:31:06.349Z,1.00
2019-05-13T10:33:36.282Z,1.00
2019-05-13T10:36:06.354Z,1.00
2019-05-13T10:38:36.163Z,1.00
2019-05-13T10:41:06.138Z,1.00
2019-05-13T10:43:40.211Z,1.00
2019-05-13T10:46:07.423Z,1.00
2019-05-13T10:48:37.300Z,1.00
2019-05-13T10:51:07.065Z,1.00
2019-05-13T10:53:36.924Z,1.00
2019-05-13T10:56:06.988Z,1.00
2019-05-13T10:58:36.777Z,1.00
2019-05-13T11:01:06.607Z,1.00
2019-05-13T11:03:36.768Z,1.00
2019-05-13T11:06:06.762Z,1.00
2019-05-13T11:08:36.522Z,1.00
2019-05-13T11:11:06.305Z,1.00
2019-05-13T11:13:54.081Z,1.00
2019-05-13T11:16:07.674Z,1.00
2019-05-13T11:18:37.437Z,1.00
2019-05-13T11:21:07.472Z,1.00
2019-05-13T11:23:37.320Z,1.00
2019-05-13T11:26:07.175Z,1.00
2019-05-13T11:28:37.252Z,1.00
2019-05-13T11:31:07.034Z,1.00
2019-05-13T11:33:36.852Z,1.00
2019-05-13T11:36:06.718Z,1.00
2019-05-13T11:38:36.545Z,1.00
2019-05-13T11:41:06.298Z,1.00
2019-05-13T11:43:36.062Z,1.00
2019-05-13T11:46:05.936Z,1.00
2019-05-13T11:48:35.664Z,1.00
2019-05-13T11:51:05.779Z,1.00
2019-05-13T11:53:37.631Z,1.00
2019-05-13T11:56:06.916Z,1.00
2019-05-13T11:58:36.670Z,1.00
2019-05-13T12:01:25.689Z,1.00
2019-05-13T12:03:55.372Z,1.00
2019-05-13T12:06:25.187Z,1.00
2019-05-13T12:08:55.547Z,1.00
2019-05-13T12:11:25.360Z,1.00
2019-05-13T12:13:55.087Z,1.00
2019-05-13T12:16:25.190Z,1.00
2019-05-13T12:18:54.918Z,1.00
2019-05-13T12:21:24.735Z,1.00
2019-05-13T12:23:54.688Z,1.00
2019-05-13T12:26:24.543Z,1.00
2019-05-13T12:28:54.528Z,1.00
2019-05-13T12:31:24.325Z,1.00
2019-05-13T12:33:54.387Z,1.00
2019-05-13T12:36:24.539Z,1.00
2019-05-13T12:38:54.759Z,1.00
2019-05-13T12:41:24.467Z,1.00
2019-05-13T12:43:54.349Z,1.00
2019-05-13T12:46:25.056Z,1.00
2019-05-13T12:48:55.017Z,1.00
2019-05-13T12:51:24.785Z,1.00
2019-05-13T12:53:54.476Z,1.00
2019-05-13T12:56:24.252Z,1.00
2019-05-13T12:58:53.981Z,1.00
2019-05-13T13:01:24.142Z,1.00
2019-05-13T13:03:53.958Z,1.00
2019-05-13T13:06:32.126Z,1.00
2019-05-13T13:09:14.532Z,1.00
2019-05-13T13:11:44.296Z,1.00
2019-05-13T13:14:15.474Z,1.00
2019-05-13T13:16:45.543Z,1.00
2019-05-13T13:19:15.338Z,1.00
2019-05-13T13:21:45.511Z,1.00
2019-05-13T13:24:15.450Z,1.00
2019-05-13T13:26:45.276Z,1.00
2019-05-13T13:29:14.986Z,1.00
2019-05-13T13:31:44.715Z,1.00
2019-05-13T13:34:18.667Z,1.00
2019-05-13T13:36:46.671Z,1.00
2019-05-13T13:39:16.480Z,1.00
2019-05-13T13:41:46.500Z,1.00
2019-05-13T13:44:16.507Z,1.00
2019-05-13T13:46:49.524Z,1.00
2019-05-13T13:49:17.651Z,1.00
2019-05-13T13:51:47.418Z,1.00
2019-05-13T13:54:17.311Z,1.00
2019-05-13T13:56:47.192Z,1.00
2019-05-13T13:59:17.216Z,1.00
2019-05-13T14:01:46.937Z,1.00
2019-05-13T14:04:16.798Z,1.00
2019-05-13T14:09:22.169Z,1.00
2019-05-13T14:11:51.580Z,1.00
2019-05-13T14:14:21.689Z,1.00
2019-05-13T14:16:51.992Z,1.00
2019-05-13T14:19:21.986Z,1.00
2019-05-13T14:21:52.617Z,1.00
2019-05-13T14:24:22.423Z,1.00
2019-05-13T14:26:52.735Z,1.00
2019-05-13T14:29:37.659Z,1.00
2019-05-13T14:31:54.957Z,1.00
2019-05-13T14:34:24.776Z,1.00
2019-05-13T14:36:54.556Z,1.00
2019-05-13T14:39:24.733Z,1.00
2019-05-13T14:41:54.499Z,1.00
2019-05-13T14:44:24.403Z,1.00
2019-05-13T14:49:42.956Z,1.00
2019-05-13T14:52:12.714Z,1.00
2019-05-13T14:54:42.498Z,1.00
2019-05-13T14:57:15.024Z,1.00
2019-05-13T14:59:44.265Z,1.00
2019-05-13T15:02:14.013Z,1.00
2019-05-13T15:04:43.724Z,1.00
2019-05-13T15:07:13.768Z,1.00
2019-05-13T15:09:43.440Z,1.00
2019-05-13T15:12:13.450Z,1.00
2019-05-13T15:14:43.213Z,1.00
2019-05-13T15:17:13.134Z,1.00
2019-05-13T15:19:42.814Z,1.00
2019-05-13T15:22:15.878Z,1.00
2019-05-13T15:24:46.066Z,1.00
2019-05-13T15:27:35.028Z,1.00
2019-05-13T15:30:16.824Z,1.00
2019-05-13T15:32:37.279Z,1.00
2019-05-13T15:35:10.048Z,1.00
2019-05-13T15:37:41.212Z,1.00
2019-05-13T15:40:11.790Z,1.00
2019-05-13T15:42:41.536Z,1.00
2019-05-13T15:45:12.497Z,1.00
2019-05-13T15:47:42.425Z,1.00
2019-05-13T15:50:12.631Z,1.00
2019-05-13T15:52:43.448Z,1.00
2019-05-13T15:55:13.480Z,1.00
2019-05-13T15:57:43.477Z,1.00
2019-05-13T16:00:13.849Z,1.00
2019-05-13T16:02:43.604Z,1.00
2019-05-13T16:05:13.659Z,1.00
2019-05-13T16:07:43.557Z,1.00
2019-05-13T16:10:13.624Z,1.00
2019-05-13T16:12:43.392Z,1.00
2019-05-13T16:15:15.794Z,1.00
2019-05-13T16:17:45.754Z,1.00
2019-05-13T16:20:16.443Z,1.00
2019-05-13T16:22:46.230Z,1.00
2019-05-13T16:25:16.441Z,1.00
2019-05-13T16:27:46.389Z,1.00
2019-05-13T16:30:16.784Z,1.00
2019-05-13T16:32:48.311Z,1.00
2019-05-13T16:35:18.300Z,1.00
2019-05-13T16:37:48.459Z,1.00
2019-05-13T16:40:18.878Z,1.00
2019-05-13T16:42:51.759Z,1.00
2019-05-13T16:45:21.823Z,1.00
2019-05-13T16:47:57.970Z,1.00
2019-05-13T16:50:25.068Z,1.00
2019-05-13T16:52:54.804Z,1.00
2019-05-13T16:55:24.683Z,1.00
2019-05-13T16:57:54.426Z,1.00
2019-05-13T17:00:24.770Z,1.00
2019-05-13T17:02:54.567Z,1.00
2019-05-13T17:05:24.474Z,1.00
2019-05-13T17:07:54.409Z,1.00
2019-05-13T17:10:24.146Z,1.00
2019-05-13T17:12:53.897Z,1.00
2019-05-13T17:15:26.410Z,1.00
2019-05-13T17:18:08.410Z,1.00
2019-05-13T17:20:27.556Z,1.00
2019-05-13T17:22:57.385Z,1.00
2019-05-13T17:25:27.241Z,1.00
2019-05-13T17:27:56.936Z,1.00
2019-05-13T17:30:26.661Z,1.00
2019-05-13T17:32:56.472Z,1.00
2019-05-13T17:35:26.173Z,1.00
2019-05-13T17:37:55.925Z,1.00
2019-05-13T17:40:25.786Z,1.00
2019-05-13T17:42:55.483Z,1.00
2019-05-13T17:45:25.239Z,1.00
2019-05-13T17:47:55.048Z,1.00
2019-05-13T17:50:24.838Z,1.00
2019-05-13T17:52:54.541Z,1.00
2019-05-13T17:55:24.587Z,1.00
2019-05-13T17:57:54.423Z,1.00
2019-05-13T18:00:24.542Z,1.00
2019-05-13T18:02:54.288Z,1.00
2019-05-13T18:05:24.058Z,1.00
2019-05-13T18:07:53.826Z,1.00
2019-05-13T18:10:23.661Z,1.00
2019-05-13T18:12:53.437Z,1.00
2019-05-13T18:15:23.240Z,1.00
2019-05-13T18:17:53.114Z,1.00
2019-05-13T18:20:22.871Z,1.00
2019-05-13T18:22:52.563Z,1.00
2019-05-13T18:25:22.482Z,1.00
2019-05-13T18:27:52.309Z,1.00
2019-05-13T18:30:22.311Z,1.00
2019-05-13T18:32:52.024Z,1.00
2019-05-13T18:35:41.821Z,1.00
2019-05-13T18:38:12.090Z,1.00
2019-05-13T18:40:42.141Z,1.00
2019-05-13T18:43:12.246Z,1.00
2019-05-13T18:45:42.057Z,1.00
2019-05-13T18:48:12.376Z,1.00
2019-05-13T18:50:42.121Z,1.00
2019-05-13T18:53:13.186Z,1.00
2019-05-13T18:55:42.942Z,1.00
2019-05-13T18:58:12.695Z,1.00
2019-05-13T19:00:42.522Z,1.00
2019-05-13T19:03:13.329Z,1.00
2019-05-13T19:05:43.125Z,1.00
2019-05-13T19:08:12.821Z,1.00
2019-05-13T19:10:42.591Z,1.00
2019-05-13T19:13:12.564Z,1.00
2019-05-13T19:15:42.366Z,1.00
2019-05-13T19:18:12.382Z,1.10
2019-05-13T19:20:42.270Z,1.50
2019-05-13T19:23:14.369Z,1.80
2019-05-13T19:25:43.429Z,2.40
2019-05-13T19:28:13.140Z,2.70
2019-05-13T19:30:42.870Z,2.80
2019-05-13T19:33:12.687Z,3.40
2019-05-13T19:35:42.727Z,3.70
2019-05-13T19:38:12.691Z,3.90
2019-05-13T19:40:42.528Z,4.00
2019-05-13T19:43:12.244Z,4.00
2019-05-13T19:45:42.096Z,4.40
2019-05-13T19:48:12.112Z,4.70
2019-05-13T19:50:41.875Z,5.10
2019-05-13T19:53:12.250Z,5.30
2019-05-13T19:55:42.090Z,5.60
2019-05-13T19:58:12.512Z,5.80
2019-05-13T20:00:42.632Z,6.20
2019-05-13T20:03:12.722Z,6.70
2019-05-13T20:05:42.478Z,6.90
2019-05-13T20:08:12.312Z,7.50
2019-05-13T20:10:42.378Z,8.90
2019-05-13T20:13:12.210Z,9.70
2019-05-13T20:15:41.943Z,8.80
2019-05-13T20:18:12.247Z,8.80
2019-05-13T20:20:42.171Z,8.80
2019-05-13T20:23:13.234Z,9.70
2019-05-13T20:25:42.871Z,10.20
2019-05-13T20:28:12.659Z,10.90
2019-05-13T20:30:45.405Z,10.60
2019-05-13T20:33:13.766Z,10.40
2019-05-13T20:35:43.482Z,10.20
2019-05-13T20:38:13.173Z,10.20
2019-05-13T20:40:42.909Z,10.40
2019-05-13T20:43:12.629Z,10.40
2019-05-13T20:46:02.202Z,10.60
2019-05-13T20:48:32.230Z,10.70
2019-05-13T20:51:02.703Z,11.20
2019-05-13T20:53:32.611Z,11.20
2019-05-13T20:56:02.364Z,11.30
2019-05-13T20:58:32.148Z,11.50
2019-05-13T21:01:02.497Z,11.60
2019-05-13T21:03:32.424Z,11.70
2019-05-13T21:06:02.503Z,11.90
2019-05-13T21:08:32.363Z,12.20
2019-05-13T21:11:02.468Z,12.30
2019-05-13T21:13:32.488Z,12.50
2019-05-13T21:16:02.554Z,12.70
2019-05-13T21:18:32.380Z,12.70
2019-05-13T21:21:02.083Z,13.00
2019-05-13T21:23:31.846Z,13.20
2019-05-13T21:26:01.880Z,13.80
2019-05-13T21:28:31.639Z,14.10
2019-05-13T21:31:02.307Z,14.40
2019-05-13T21:33:32.077Z,14.50
2019-05-13T21:36:02.009Z,14.80
2019-05-13T21:38:32.459Z,15.00
2019-05-13T21:41:02.353Z,15.30
2019-05-13T21:43:32.542Z,16.00
2019-05-13T21:46:02.456Z,17.00
2019-05-13T21:48:32.727Z,17.00
2019-05-13T21:51:02.630Z,16.90
2019-05-13T21:53:32.814Z,17.40
2019-05-13T21:56:02.672Z,17.80
2019-05-13T21:58:32.464Z,18.20
2019-05-13T22:01:03.399Z,18.70
2019-05-13T22:03:33.641Z,19.30
2019-05-13T22:06:03.519Z,19.70
2019-05-13T22:08:33.318Z,20.30
2019-05-13T22:11:03.073Z,19.80
2019-05-13T22:13:33.095Z,19.80
2019-05-13T22:16:02.893Z,20.20
2019-05-13T22:18:32.733Z,19.90
2019-05-13T22:21:03.096Z,19.40
2019-05-13T22:23:32.849Z,19.30
2019-05-13T22:26:02.592Z,19.30
2019-05-13T22:28:32.345Z,19.00
2019-05-13T22:31:02.095Z,18.90
2019-05-13T22:33:32.543Z,19.10
2019-05-13T22:36:02.322Z,19.00
2019-05-13T22:38:32.567Z,18.80
2019-05-13T22:41:02.310Z,18.70
2019-05-13T22:43:32.349Z,18.40
2019-05-13T22:46:02.121Z,18.20
2019-05-13T22:48:31.975Z,17.50
2019-05-13T22:51:01.729Z,17.30
2019-05-13T22:53:32.056Z,17.30
2019-05-13T22:56:01.812Z,17.30
2019-05-13T22:58:32.194Z,17.40
2019-05-13T23:01:02.646Z,17.40
2019-05-13T23:03:33.110Z,17.30
2019-05-13T23:06:02.907Z,17.30
2019-05-13T23:08:32.652Z,17.40
2019-05-13T23:11:02.398Z,17.30
2019-05-13T23:13:32.118Z,17.10
2019-05-13T23:16:02.500Z,16.60
2019-05-13T23:18:32.372Z,17.10
2019-05-13T23:21:02.509Z,17.00
2019-05-13T23:23:32.264Z,17.00
2019-05-13T23:26:01.963Z,17.10
2019-05-13T23:28:32.247Z,17.40
2019-05-13T23:31:02.094Z,17.30
2019-05-13T23:33:31.821Z,17.30
2019-05-13T23:36:01.759Z,17.20
2019-05-13T23:38:32.087Z,18.00
2019-05-13T23:41:02.229Z,18.50
2019-05-13T23:43:31.988Z,18.80
2019-05-13T23:46:01.731Z,19.20
2019-05-13T23:48:32.050Z,19.60
2019-05-13T23:51:02.033Z,19.80
2019-05-13T23:53:52.495Z,20.00
2019-05-13T23:56:22.270Z,20.70
2019-05-13T23:58:52.099Z,21.10
